createdAt,value
2022-11-08T00:01:45.715Z,23.77
2022-11-08T00:04:16.546Z,24.53
2022-11-08T00:07:04.643Z,24.90
2022-11-08T00:09:51.796Z,27.67
2022-11-08T00:12:39.852Z,22.37
2022-11-08T00:15:10.632Z,23.27
2022-11-08T00:17:39.110Z,22.13
2022-11-08T00:20:11.517Z,23.67
2022-11-08T00:22:40.414Z,23.07
2022-11-08T00:25:11.353Z,28.13
2022-11-08T00:27:42.505Z,24.00
2022-11-08T00:30:16.605Z,22.73
2022-11-08T00:32:45.053Z,21.77
2022-11-08T00:35:13.841Z,23.93
2022-11-08T00:37:44.807Z,21.87
2022-11-08T00:40:14.032Z,25.67
2022-11-08T00:42:42.638Z,25.43
2022-11-08T00:45:13.956Z,23.90
2022-11-08T00:47:44.653Z,23.13
2022-11-08T00:50:14.367Z,21.43
2022-11-08T00:52:45.345Z,21.80
2022-11-08T00:55:13.856Z,21.65
2022-11-08T00:57:58.479Z,18.97
2022-11-08T01:00:28.574Z,21.70
2022-11-08T01:03:11.798Z,21.70
2022-11-08T01:05:40.421Z,21.43
2022-11-08T01:08:13.314Z,23.10
2022-11-08T01:10:42.835Z,24.27
2022-11-08T01:13:14.073Z,24.27
2022-11-08T01:15:46.550Z,23.07
2022-11-08T01:18:20.020Z,21.57
2022-11-08T01:20:50.900Z,24.10
2022-11-08T01:23:19.780Z,22.97
2022-11-08T01:25:51.727Z,23.13
2022-11-08T01:28:21.199Z,23.50
2022-11-08T01:30:50.770Z,23.27
2022-11-08T01:33:19.472Z,20.37
2022-11-08T01:35:48.045Z,22.07
2022-11-08T01:38:19.495Z,23.00
2022-11-08T01:40:53.571Z,21.40
2022-11-08T01:43:36.462Z,21.95
2022-11-08T01:46:41.128Z,21.13
2022-11-08T01:49:36.133Z,23.60
2022-11-08T01:52:20.714Z,19.90
2022-11-08T01:54:56.785Z,21.20
2022-11-08T01:57:28.574Z,24.40
2022-11-08T02:00:01.316Z,21.93
2022-11-08T02:02:38.800Z,20.23
2022-11-08T02:05:24.296Z,25.50
2022-11-08T02:07:59.208Z,22.27
2022-11-08T02:10:33.405Z,24.00
2022-11-08T02:13:05.217Z,24.27
2022-11-08T02:15:35.284Z,24.20
2022-11-08T02:18:04.174Z,21.57
2022-11-08T02:20:33.791Z,22.03
2022-11-08T02:23:11.782Z,25.23
2022-11-08T02:25:42.709Z,19.40
2022-11-08T02:28:12.616Z,22.43
2022-11-08T02:30:41.677Z,24.53
2022-11-08T02:33:20.577Z,19.70
2022-11-08T02:35:51.686Z,23.23
2022-11-08T02:38:21.045Z,22.07
2022-11-08T02:40:55.268Z,23.33
2022-11-08T02:43:26.145Z,26.03
2022-11-08T02:45:59.158Z,18.80
2022-11-08T02:48:31.170Z,23.57
2022-11-08T02:51:00.805Z,19.70
2022-11-08T02:53:34.450Z,22.60
2022-11-08T02:56:03.066Z,19.82
2022-11-08T02:58:31.597Z,21.47
2022-11-08T03:01:00.165Z,21.20
2022-11-08T03:03:29.481Z,21.00
2022-11-08T03:05:58.088Z,24.60
2022-11-08T03:08:29.495Z,25.80
2022-11-08T03:10:59.955Z,23.43
2022-11-08T03:13:30.180Z,24.03
2022-11-08T03:16:01.263Z,24.07
2022-11-08T03:18:30.742Z,24.57
2022-11-08T03:21:00.522Z,22.57
2022-11-08T03:23:31.161Z,22.97
2022-11-08T03:26:02.419Z,22.80
2022-11-08T03:28:31.092Z,24.13
2022-11-08T03:30:59.682Z,26.47
2022-11-08T03:33:28.881Z,27.67
2022-11-08T03:35:57.718Z,23.90
2022-11-08T03:38:26.384Z,21.70
2022-11-08T03:40:57.853Z,23.37
2022-11-08T03:43:27.465Z,22.33
2022-11-08T03:45:56.030Z,19.73
2022-11-08T03:48:24.513Z,28.70
2022-11-08T03:50:53.165Z,21.80
2022-11-08T03:53:21.754Z,22.83
2022-11-08T03:55:52.507Z,21.27
2022-11-08T03:58:21.276Z,23.93
2022-11-08T04:00:51.045Z,21.70
2022-11-08T04:03:19.780Z,22.13
2022-11-08T04:05:48.226Z,25.00
2022-11-08T04:08:18.370Z,23.53
2022-11-08T04:10:47.470Z,20.37
2022-11-08T04:13:34.835Z,24.90
2022-11-08T04:16:03.893Z,21.10
2022-11-08T04:18:52.241Z,20.87
2022-11-08T04:21:24.271Z,23.30
2022-11-08T04:23:56.076Z,21.53
2022-11-08T04:26:27.156Z,21.23
2022-11-08T04:28:55.720Z,23.93
2022-11-08T04:31:26.172Z,23.53
2022-11-08T04:33:55.828Z,21.10
2022-11-08T04:36:24.307Z,22.00
2022-11-08T04:38:54.068Z,21.40
2022-11-08T04:41:24.491Z,24.77
2022-11-08T04:43:56.110Z,24.63
2022-11-08T04:46:30.999Z,26.03
2022-11-08T04:49:03.965Z,27.17
2022-11-08T04:51:33.543Z,27.37
2022-11-08T04:54:05.871Z,26.63
2022-11-08T04:56:34.774Z,25.60
2022-11-08T04:59:07.271Z,23.80
2022-11-08T05:01:41.069Z,23.57
2022-11-08T05:04:10.184Z,23.57
2022-11-08T05:06:39.071Z,22.03
2022-11-08T05:09:08.027Z,24.53
2022-11-08T05:11:38.952Z,25.43
2022-11-08T05:14:07.550Z,26.13
2022-11-08T05:16:39.746Z,29.37
2022-11-08T05:19:13.017Z,24.37
2022-11-08T05:22:02.355Z,27.73
2022-11-08T05:24:31.537Z,27.90
2022-11-08T05:27:01.265Z,29.20
2022-11-08T05:29:34.844Z,22.60
2022-11-08T05:32:06.589Z,26.60
2022-11-08T05:34:40.792Z,26.10
2022-11-08T05:39:38.180Z,26.40
2022-11-08T05:42:07.482Z,24.00
2022-11-08T05:44:36.049Z,21.97
2022-11-08T05:47:05.472Z,25.87
2022-11-08T05:49:34.065Z,24.43
2022-11-08T05:52:07.336Z,24.80
2022-11-08T05:54:36.164Z,23.97
2022-11-08T05:57:05.025Z,23.03
2022-11-08T05:59:39.010Z,30.00
2022-11-08T06:02:07.753Z,24.45
2022-11-08T06:04:36.587Z,23.70
2022-11-08T06:07:05.677Z,23.27
2022-11-08T06:09:36.798Z,26.93
2022-11-08T06:12:07.083Z,34.03
2022-11-08T06:14:36.644Z,24.73
2022-11-08T06:17:06.472Z,26.17
2022-11-08T06:19:35.596Z,24.30
2022-11-08T06:22:04.362Z,26.33
2022-11-08T06:24:33.192Z,23.87
2022-11-08T06:27:02.052Z,24.83
2022-11-08T06:29:33.479Z,25.97
2022-11-08T06:32:02.496Z,23.57
2022-11-08T06:34:31.768Z,29.43
2022-11-08T06:37:00.543Z,29.20
2022-11-08T06:39:32.536Z,24.83
2022-11-08T06:42:01.425Z,26.87
2022-11-08T06:44:30.031Z,24.33
2022-11-08T06:46:59.336Z,27.90
2022-11-08T06:49:31.096Z,27.37
2022-11-08T06:51:59.573Z,24.03
2022-11-08T06:54:30.812Z,29.37
2022-11-08T06:57:01.616Z,23.53
2022-11-08T06:59:30.193Z,28.50
2022-11-08T07:01:58.882Z,22.00
2022-11-08T07:04:27.514Z,22.53
2022-11-08T07:06:59.125Z,22.10
2022-11-08T07:09:27.736Z,24.07
2022-11-08T07:11:56.973Z,24.40
2022-11-08T07:14:25.525Z,26.90
2022-11-08T07:16:54.010Z,29.13
2022-11-08T07:19:22.531Z,25.47
2022-11-08T07:21:53.154Z,22.27
2022-11-08T07:24:21.605Z,24.10
2022-11-08T07:26:52.084Z,24.40
2022-11-08T07:29:20.848Z,19.27
2022-11-08T07:31:49.373Z,19.07
2022-11-08T07:34:18.826Z,20.00
2022-11-08T07:36:47.328Z,20.15
2022-11-08T07:39:16.183Z,20.60
2022-11-08T07:41:44.768Z,16.73
2022-11-08T07:44:13.395Z,20.43
2022-11-08T07:46:41.885Z,19.17
2022-11-08T07:49:10.527Z,17.97
2022-11-08T07:51:38.949Z,20.67
2022-11-08T07:54:07.431Z,20.95
2022-11-08T07:56:35.967Z,20.60
2022-11-08T07:59:04.788Z,22.20
2022-11-08T08:01:35.208Z,19.10
2022-11-08T08:04:04.285Z,19.83
2022-11-08T08:06:32.911Z,22.43
2022-11-08T08:09:01.486Z,16.23
2022-11-08T08:11:33.620Z,20.77
2022-11-08T08:14:02.544Z,18.23
2022-11-08T08:16:34.513Z,20.47
2022-11-08T08:19:03.504Z,16.80
2022-11-08T08:21:32.092Z,17.30
2022-11-08T08:24:00.566Z,16.30
2022-11-08T08:26:29.313Z,19.03
2022-11-08T08:28:57.797Z,17.87
2022-11-08T08:31:26.289Z,19.57
2022-11-08T08:33:54.713Z,16.40
2022-11-08T08:36:23.239Z,16.33
2022-11-08T08:38:53.274Z,14.43
2022-11-08T08:41:21.769Z,14.13
2022-11-08T08:43:51.660Z,15.27
2022-11-08T08:46:20.204Z,15.07
2022-11-08T08:48:49.534Z,15.83
2022-11-08T08:51:21.148Z,13.43
2022-11-08T08:53:50.030Z,12.85
2022-11-08T08:56:19.179Z,12.17
2022-11-08T09:01:42.444Z,15.83
2022-11-08T09:04:10.947Z,15.03
2022-11-08T09:06:39.526Z,13.73
2022-11-08T09:09:08.012Z,15.43
2022-11-08T09:11:39.565Z,10.93
2022-11-08T09:14:08.106Z,16.03
2022-11-08T09:16:38.924Z,13.43
2022-11-08T09:19:07.439Z,12.20
2022-11-08T09:21:35.964Z,12.97
2022-11-08T09:24:05.006Z,13.53
2022-11-08T09:26:34.198Z,11.67
2022-11-08T09:29:02.683Z,11.53
2022-11-08T09:31:35.828Z,13.07
2022-11-08T09:34:06.816Z,13.57
2022-11-08T09:36:35.369Z,17.83
2022-11-08T09:39:04.091Z,14.23
2022-11-08T09:41:57.457Z,10.37
2022-11-08T09:44:55.186Z,12.20
2022-11-08T09:47:26.776Z,13.87
2022-11-08T09:50:02.742Z,11.60
2022-11-08T09:52:34.562Z,11.33
2022-11-08T09:55:16.540Z,10.30
2022-11-08T09:57:55.870Z,7.57
2022-11-08T10:00:24.911Z,9.03
2022-11-08T10:02:53.803Z,9.40
2022-11-08T10:05:22.604Z,10.23
2022-11-08T10:07:58.395Z,8.73
2022-11-08T10:11:04.459Z,11.20
2022-11-08T10:13:43.795Z,10.33
2022-11-08T10:16:27.664Z,10.43
2022-11-08T10:21:46.616Z,9.07
2022-11-08T10:24:23.976Z,10.03
2022-11-08T10:26:54.969Z,10.37
2022-11-08T10:29:27.038Z,7.43
2022-11-08T10:32:02.604Z,8.13
2022-11-08T10:34:39.550Z,6.57
2022-11-08T10:37:14.951Z,8.60
2022-11-08T10:39:54.292Z,8.50
2022-11-08T10:42:34.512Z,11.43
2022-11-08T10:45:03.278Z,9.43
2022-11-08T10:47:33.726Z,10.90
2022-11-08T10:50:06.392Z,10.10
2022-11-08T10:52:40.704Z,7.80
2022-11-08T10:55:22.641Z,10.03
2022-11-08T10:57:53.981Z,9.60
2022-11-08T11:00:29.661Z,9.20
2022-11-08T11:03:00.294Z,9.53
2022-11-08T11:05:32.829Z,11.13
2022-11-08T11:08:15.625Z,9.37
2022-11-08T11:10:46.333Z,9.93
2022-11-08T11:13:20.401Z,8.10
2022-11-08T11:15:52.830Z,7.17
2022-11-08T11:18:33.631Z,10.53
2022-11-08T11:21:07.227Z,10.43
2022-11-08T11:23:43.541Z,8.90
2022-11-08T11:26:34.085Z,14.07
2022-11-08T11:29:16.580Z,8.77
2022-11-08T11:31:47.220Z,9.73
2022-11-08T11:34:40.273Z,9.23
2022-11-08T11:37:20.430Z,10.50
2022-11-08T11:39:59.962Z,8.60
2022-11-08T11:42:49.365Z,7.83
2022-11-08T11:45:25.051Z,7.03
2022-11-08T11:47:55.727Z,8.78
2022-11-08T11:50:32.071Z,5.93
2022-11-08T11:53:04.346Z,9.70
2022-11-08T11:56:06.312Z,8.93
2022-11-08T11:58:57.972Z,7.22
2022-11-08T12:01:50.887Z,8.10
2022-11-08T12:04:37.205Z,7.63
2022-11-08T12:07:11.724Z,7.37
2022-11-08T12:09:54.448Z,6.97
2022-11-08T12:12:49.598Z,9.47
2022-11-08T12:15:26.639Z,6.63
2022-11-08T12:18:37.009Z,8.17
2022-11-08T12:21:12.047Z,12.57
2022-11-08T12:24:01.143Z,10.93
2022-11-08T12:26:40.031Z,12.17
2022-11-08T12:29:22.621Z,7.47
2022-11-08T12:32:21.118Z,10.40
2022-11-08T12:35:08.243Z,8.43
2022-11-08T12:37:50.757Z,9.67
2022-11-08T12:40:27.323Z,8.73
2022-11-08T12:43:08.549Z,11.43
2022-11-08T12:45:55.574Z,10.60
2022-11-08T12:48:40.147Z,10.90
2022-11-08T12:51:22.601Z,9.80
2022-11-08T12:54:08.486Z,8.90
2022-11-08T12:56:43.062Z,15.23
2022-11-08T12:59:20.305Z,12.10
2022-11-08T13:01:49.944Z,11.90
2022-11-08T13:04:38.696Z,9.43
2022-11-08T13:07:24.919Z,10.57
2022-11-08T13:10:00.455Z,14.93
2022-11-08T13:12:40.886Z,11.43
2022-11-08T13:15:18.661Z,11.07
2022-11-08T13:18:23.618Z,12.37
2022-11-08T13:20:55.302Z,7.27
2022-11-08T13:23:30.501Z,7.50
2022-11-08T13:26:19.989Z,12.20
2022-11-08T13:28:49.936Z,8.85
2022-11-08T13:31:36.910Z,10.97
2022-11-08T13:34:32.348Z,9.80
2022-11-08T13:40:00.427Z,10.15
2022-11-08T13:42:37.909Z,11.30
2022-11-08T13:45:25.748Z,9.90
2022-11-08T13:47:58.364Z,13.73
2022-11-08T13:50:54.710Z,12.03
2022-11-08T13:53:57.338Z,11.03
2022-11-08T13:56:48.920Z,14.93
2022-11-08T13:59:55.007Z,12.67
2022-11-08T14:02:45.048Z,12.20
2022-11-08T14:05:24.777Z,13.53
2022-11-08T14:08:18.850Z,26.50
2022-11-08T14:11:22.310Z,17.95
2022-11-08T14:14:05.476Z,18.70
2022-11-08T14:16:47.281Z,20.67
2022-11-08T14:19:22.532Z,11.07
2022-11-08T14:21:59.818Z,8.27
2022-11-08T14:24:31.286Z,13.20
2022-11-08T14:27:00.554Z,9.97
2022-11-08T14:29:29.817Z,13.43
2022-11-08T14:32:07.275Z,13.30
2022-11-08T14:34:40.025Z,10.60
2022-11-08T14:37:17.130Z,11.33
2022-11-08T14:39:47.879Z,10.13
2022-11-08T14:42:23.082Z,9.40
2022-11-08T14:44:58.409Z,11.73
2022-11-08T14:47:32.234Z,14.97
2022-11-08T14:50:01.123Z,10.95
2022-11-08T14:52:31.592Z,9.67
2022-11-08T14:55:04.972Z,10.30
2022-11-08T14:57:37.919Z,12.03
2022-11-08T15:00:16.312Z,15.33
2022-11-08T15:02:49.148Z,8.77
2022-11-08T15:05:42.406Z,8.10
2022-11-08T15:08:22.740Z,12.40
2022-11-08T15:10:59.137Z,8.50
2022-11-08T15:13:34.484Z,12.93
2022-11-08T15:16:06.942Z,12.67
2022-11-08T15:18:41.387Z,9.77
2022-11-08T15:21:26.986Z,9.03
2022-11-08T15:24:11.303Z,9.73
2022-11-08T15:26:41.113Z,14.00
2022-11-08T15:29:18.944Z,13.47
2022-11-08T15:31:56.980Z,14.10
2022-11-08T15:34:45.155Z,10.00
2022-11-08T15:37:21.741Z,8.93
2022-11-08T15:39:53.311Z,10.07
2022-11-08T15:42:22.480Z,13.43
2022-11-08T15:45:04.702Z,14.63
2022-11-08T15:47:39.153Z,14.27
2022-11-08T15:50:17.629Z,13.63
2022-11-08T15:52:51.714Z,14.47
2022-11-08T15:57:55.812Z,14.37
2022-11-08T16:00:25.983Z,10.87
2022-11-08T16:02:55.359Z,11.97
2022-11-08T16:05:25.739Z,13.70
2022-11-08T16:07:55.221Z,14.60
2022-11-08T16:10:29.605Z,13.83
2022-11-08T16:13:06.289Z,20.60
2022-11-08T16:15:38.793Z,22.87
2022-11-08T16:18:10.267Z,23.20
2022-11-08T16:20:39.259Z,29.97
2022-11-08T16:23:09.728Z,26.50
2022-11-08T16:25:43.173Z,30.00
2022-11-08T16:28:20.953Z,23.90
2022-11-08T16:30:52.223Z,30.13
2022-11-08T16:33:23.363Z,32.15
2022-11-08T16:35:55.652Z,32.47
2022-11-08T16:38:27.582Z,27.77
2022-11-08T16:40:57.128Z,31.93
2022-11-08T16:43:25.671Z,29.03
2022-11-08T16:46:10.717Z,36.10
2022-11-08T16:51:24.684Z,27.30
2022-11-08T16:53:56.830Z,32.33
2022-11-08T16:56:25.467Z,28.23
2022-11-08T16:58:54.145Z,28.70
2022-11-08T17:01:30.611Z,26.60
2022-11-08T17:04:06.506Z,26.93
2022-11-08T17:06:35.270Z,23.97
2022-11-08T17:09:04.015Z,23.37
2022-11-08T17:11:34.442Z,28.23
2022-11-08T17:14:06.034Z,29.93
2022-11-08T17:16:40.398Z,26.87
2022-11-08T17:19:08.976Z,29.35
2022-11-08T17:21:45.744Z,26.03
2022-11-08T17:24:21.657Z,33.30
2022-11-08T17:26:53.498Z,35.20
2022-11-08T17:29:24.646Z,31.33
2022-11-08T17:31:56.674Z,29.57
2022-11-08T17:34:26.773Z,30.03
2022-11-08T17:36:55.542Z,31.67
2022-11-08T17:39:23.980Z,32.13
2022-11-08T17:41:54.801Z,34.00
2022-11-08T17:44:23.404Z,31.13
2022-11-08T17:46:54.128Z,28.93
2022-11-08T17:49:22.749Z,27.50
2022-11-08T17:51:54.159Z,28.57
2022-11-08T17:54:22.709Z,27.75
2022-11-08T17:56:55.011Z,25.03
2022-11-08T17:59:23.716Z,27.80
2022-11-08T18:01:55.015Z,29.83
2022-11-08T18:04:23.597Z,27.00
2022-11-08T18:06:54.908Z,24.47
2022-11-08T18:09:23.930Z,31.83
2022-11-08T18:11:53.659Z,30.17
2022-11-08T18:14:28.239Z,29.63
2022-11-08T18:16:59.221Z,34.10
2022-11-08T18:19:28.179Z,38.17
2022-11-08T18:21:56.682Z,36.63
2022-11-08T18:24:25.211Z,36.53
2022-11-08T18:26:53.912Z,36.30
2022-11-08T18:29:23.294Z,33.10
2022-11-08T18:32:01.298Z,36.10
2022-11-08T18:34:34.040Z,32.27
2022-11-08T18:37:02.663Z,34.23
2022-11-08T18:39:33.974Z,36.80
2022-11-08T18:42:04.515Z,31.23
2022-11-08T18:44:33.834Z,30.93
2022-11-08T18:47:04.912Z,29.40
2022-11-08T18:49:33.589Z,33.53
2022-11-08T18:52:03.788Z,32.27
2022-11-08T18:54:33.343Z,30.67
2022-11-08T18:57:19.947Z,28.40
2022-11-08T18:59:49.167Z,34.13
2022-11-08T19:02:18.461Z,38.77
2022-11-08T19:05:23.614Z,33.53
2022-11-08T19:08:09.560Z,34.73
2022-11-08T19:10:54.318Z,28.97
2022-11-08T19:13:29.585Z,33.50
2022-11-08T19:16:13.821Z,34.13
2022-11-08T19:18:57.731Z,34.87
2022-11-08T19:23:59.147Z,35.10
2022-11-08T19:26:29.250Z,41.93
2022-11-08T19:28:58.245Z,39.37
2022-11-08T19:31:30.048Z,38.53
2022-11-08T19:34:08.757Z,41.63
2022-11-08T19:36:43.009Z,47.63
2022-11-08T19:39:13.274Z,54.73
2022-11-08T19:42:11.843Z,59.57
2022-11-08T19:44:40.494Z,61.20
2022-11-08T19:47:09.481Z,59.80
2022-11-08T19:49:39.339Z,55.87
2022-11-08T19:52:43.411Z,53.00
2022-11-08T19:55:12.313Z,43.83
2022-11-08T19:57:41.446Z,40.67
2022-11-08T20:00:14.935Z,38.07
2022-11-08T20:02:43.983Z,41.70
2022-11-08T20:05:12.877Z,36.63
2022-11-08T20:07:45.358Z,42.33
2022-11-08T20:10:14.899Z,47.50
2022-11-08T20:12:43.924Z,48.90
2022-11-08T20:15:13.031Z,57.60
2022-11-08T20:17:42.073Z,64.60
2022-11-08T20:20:13.596Z,63.53
2022-11-08T20:22:47.837Z,68.50
2022-11-08T20:25:16.969Z,74.00
2022-11-08T20:27:45.569Z,98.57
2022-11-08T20:30:14.634Z,113.17
2022-11-08T20:32:46.019Z,84.73
2022-11-08T20:35:19.220Z,79.00
2022-11-08T20:37:55.926Z,91.83
2022-11-08T20:40:24.423Z,89.93
2022-11-08T20:42:54.098Z,75.47
2022-11-08T20:45:22.707Z,76.77
2022-11-08T20:47:52.477Z,63.53
2022-11-08T20:50:21.051Z,46.50
2022-11-08T20:52:49.692Z,47.00
2022-11-08T20:55:20.302Z,51.20
2022-11-08T20:57:49.700Z,52.37
2022-11-08T21:00:32.917Z,48.67
2022-11-08T21:03:09.572Z,48.50
2022-11-08T21:05:40.779Z,41.20
2022-11-08T21:11:05.115Z,36.37
2022-11-08T21:13:38.694Z,38.33
2022-11-08T21:16:28.840Z,52.88
2022-11-08T21:19:06.513Z,62.87
2022-11-08T21:21:39.167Z,79.80
2022-11-08T21:24:09.651Z,68.67
2022-11-08T21:26:40.077Z,52.17
2022-11-08T21:29:11.539Z,47.03
2022-11-08T21:31:43.313Z,41.50
2022-11-08T21:34:12.330Z,37.23
2022-11-08T21:36:41.174Z,36.00
2022-11-08T21:39:11.228Z,34.77
2022-11-08T21:41:42.548Z,35.30
2022-11-08T21:44:11.512Z,32.83
2022-11-08T21:46:43.399Z,42.37
2022-11-08T21:49:13.404Z,34.83
2022-11-08T21:51:42.184Z,36.90
2022-11-08T21:54:12.370Z,50.20
2022-11-08T21:56:42.533Z,53.57
2022-11-08T21:59:12.088Z,57.63
2022-11-08T22:01:41.300Z,50.57
2022-11-08T22:04:10.356Z,50.50
2022-11-08T22:06:46.395Z,40.57
2022-11-08T22:09:16.427Z,41.50
2022-11-08T22:11:45.217Z,37.80
2022-11-08T22:14:14.310Z,37.87
2022-11-08T22:16:43.251Z,36.20
2022-11-08T22:19:12.702Z,36.10
2022-11-08T22:21:43.746Z,38.37
2022-11-08T22:24:14.689Z,35.30
2022-11-08T22:26:43.848Z,34.90
2022-11-08T22:29:13.346Z,30.73
2022-11-08T22:31:42.516Z,30.95
2022-11-08T22:34:12.108Z,36.10
2022-11-08T22:36:45.901Z,29.83
2022-11-08T22:39:19.930Z,31.70
2022-11-08T22:41:53.003Z,32.53
2022-11-08T22:44:22.308Z,29.30
2022-11-08T22:46:53.397Z,33.13
2022-11-08T22:49:22.264Z,31.47
2022-11-08T22:51:53.998Z,28.90
2022-11-08T22:54:22.920Z,34.57
2022-11-08T22:56:54.452Z,29.70
2022-11-08T22:59:23.949Z,31.43
2022-11-08T23:01:54.997Z,31.20
2022-11-08T23:04:25.551Z,31.23
2022-11-08T23:06:54.468Z,31.33
2022-11-08T23:09:23.333Z,30.90
2022-11-08T23:12:13.804Z,35.87
2022-11-08T23:15:02.484Z,29.30
2022-11-08T23:17:31.441Z,32.37
2022-11-08T23:20:19.946Z,27.70
2022-11-08T23:23:07.434Z,29.37
2022-11-08T23:25:36.367Z,27.30
2022-11-08T23:28:35.396Z,30.50
2022-11-08T23:31:22.735Z,32.17
2022-11-08T23:33:53.987Z,34.13
2022-11-08T23:36:22.747Z,29.57
2022-11-08T23:38:53.651Z,28.93
2022-11-08T23:41:41.044Z,31.33
2022-11-08T23:44:27.278Z,30.13
2022-11-08T23:46:58.071Z,28.70
2022-11-08T23:49:26.867Z,30.20
2022-11-08T23:51:55.625Z,27.93
2022-11-08T23:54:24.141Z,30.70
2022-11-08T23:56:54.220Z,32.13
2022-11-08T23:59:22.683Z,36.90
